sensor_id;sensor_type;location;lat;lon;timestamp;pressure;altitude;pressure_sealevel;temperature;humidity
30714;BME280;17465;47.934;33.430;2023-06-19T00:01:27;57432.10;;;-140.43;42.67
30714;BME280;17465;47.934;33.430;2023-06-19T00:03:58;57481.88;;;-140.43;42.58
30714;BME280;17465;47.934;33.430;2023-06-19T00:06:28;57436.34;;;-140.43;43.58
30714;BME280;17465;47.934;33.430;2023-06-19T00:08:59;57460.70;;;-140.43;44.12
30714;BME280;17465;47.934;33.430;2023-06-19T00:11:30;57437.39;;;-140.43;42.81
30714;BME280;17465;47.934;33.430;2023-06-19T00:14:00;57423.63;;;-140.43;44.25
30714;BME280;17465;47.934;33.430;2023-06-19T00:16:31;57428.92;;;-140.43;43.44
30714;BME280;17465;47.934;33.430;2023-06-19T00:19:03;57440.57;;;-140.43;44.78
30714;BME280;17465;47.934;33.430;2023-06-19T00:21:34;57404.57;;;-140.43;45.35
30714;BME280;17465;47.934;33.430;2023-06-19T00:24:04;57420.45;;;-140.43;43.88
30714;BME280;17465;47.934;33.430;2023-06-19T00:26:35;57447.99;;;-140.43;45.58
30714;BME280;17465;47.934;33.430;2023-06-19T00:29:05;57426.80;;;-140.43;45.82
30714;BME280;17465;47.934;33.430;2023-06-19T00:31:36;57431.04;;;-140.43;45.29
30714;BME280;17465;47.934;33.430;2023-06-19T00:34:06;57459.64;;;-140.43;45.47
30714;BME280;17465;47.934;33.430;2023-06-19T00:36:36;57425.75;;;-140.43;45.25
30714;BME280;17465;47.934;33.430;2023-06-19T00:39:07;57406.68;;;-140.43;46.33
30714;BME280;17465;47.934;33.430;2023-06-19T00:41:40;57408.80;;;-140.43;45.74
30714;BME280;17465;47.934;33.430;2023-06-19T00:44:10;57408.80;;;-140.43;45.74
30714;BME280;17465;47.934;33.430;2023-06-19T00:46:55;57425.75;;;-140.43;46.09
30714;BME280;17465;47.934;33.430;2023-06-19T00:49:25;57435.28;;;-140.43;44.89
30714;BME280;17465;47.934;33.430;2023-06-19T00:51:55;57435.28;;;-140.43;44.89
30714;BME280;17465;47.934;33.430;2023-06-19T00:54:26;57403.51;;;-140.43;45.67
30714;BME280;17465;47.934;33.430;2023-06-19T00:56:56;57428.92;;;-140.43;44.97
30714;BME280;17465;47.934;33.430;2023-06-19T00:59:27;57441.63;;;-140.43;44.95
30714;BME280;17465;47.934;33.430;2023-06-19T01:01:57;57436.34;;;-140.43;45.17
30714;BME280;17465;47.934;33.430;2023-06-19T01:04:28;57431.04;;;-140.43;43.80
30714;BME280;17465;47.934;33.430;2023-06-19T01:07:02;57449.05;;;-140.43;44.29
30714;BME280;17465;47.934;33.430;2023-06-19T01:09:36;57452.23;;;-140.43;43.70
30714;BME280;17465;47.934;33.430;2023-06-19T01:15:02;57420.45;;;-140.43;44.04
30714;BME280;17465;47.934;33.430;2023-06-19T01:17:34;57413.04;;;-140.43;44.89
30714;BME280;17465;47.934;33.430;2023-06-19T01:20:07;57416.21;;;-140.43;43.74
30714;BME280;17465;47.934;33.430;2023-06-19T01:22:37;57426.80;;;-140.43;44.15
30714;BME280;17465;47.934;33.430;2023-06-19T01:25:08;57416.21;;;-140.43;44.87
30714;BME280;17465;47.934;33.430;2023-06-19T01:27:38;57416.21;;;-140.43;44.87
30714;BME280;17465;47.934;33.430;2023-06-19T01:30:09;57406.68;;;-140.43;46.05
30714;BME280;17465;47.934;33.430;2023-06-19T01:33:02;57410.92;;;-140.43;44.57
30714;BME280;17465;47.934;33.430;2023-06-19T01:35:34;57416.21;;;-140.43;45.12
30714;BME280;17465;47.934;33.430;2023-06-19T01:38:06;57386.56;;;-140.43;44.03
30714;BME280;17465;47.934;33.430;2023-06-19T01:40:37;57401.39;;;-140.43;43.54
30714;BME280;17465;47.934;33.430;2023-06-19T01:43:08;57405.62;;;-140.43;44.10
30714;BME280;17465;47.934;33.430;2023-06-19T01:45:40;57410.92;;;-140.43;43.92
30714;BME280;17465;47.934;33.430;2023-06-19T01:48:11;57410.92;;;-140.43;43.92
30714;BME280;17465;47.934;33.430;2023-06-19T01:50:48;57401.39;;;-140.43;43.04
30714;BME280;17465;47.934;33.430;2023-06-19T01:53:20;57377.03;;;-140.43;44.10
30714;BME280;17465;47.934;33.430;2023-06-19T01:55:50;57377.03;;;-140.43;44.10
30714;BME280;17465;47.934;33.430;2023-06-19T01:58:20;57406.68;;;-140.43;43.08
30714;BME280;17465;47.934;33.430;2023-06-19T02:00:51;57398.21;;;-140.43;43.58
30714;BME280;17465;47.934;33.430;2023-06-19T02:03:22;57398.21;;;-140.43;43.58
30714;BME280;17465;47.934;33.430;2023-06-19T02:05:52;57407.74;;;-140.43;44.04
30714;BME280;17465;47.934;33.430;2023-06-19T02:08:23;57407.74;;;-140.43;44.04
30714;BME280;17465;47.934;33.430;2023-06-19T02:10:53;57405.62;;;-140.43;44.03
30714;BME280;17465;47.934;33.430;2023-06-19T02:13:24;57397.15;;;-140.43;43.93
30714;BME280;17465;47.934;33.430;2023-06-19T02:15:54;57401.39;;;-140.43;44.47
30714;BME280;17465;47.934;33.430;2023-06-19T02:18:25;57401.39;;;-140.43;44.27
30714;BME280;17465;47.934;33.430;2023-06-19T02:20:55;57392.91;;;-140.43;46.09
30714;BME280;17465;47.934;33.430;2023-06-19T02:23:25;57387.62;;;-140.43;45.69
30714;BME280;17465;47.934;33.430;2023-06-19T02:25:56;57398.21;;;-140.43;45.66
30714;BME280;17465;47.934;33.430;2023-06-19T02:28:26;57398.21;;;-140.43;45.66
30714;BME280;17465;47.934;33.430;2023-06-19T02:30:56;57371.73;;;-140.43;45.78
30714;BME280;17465;47.934;33.430;2023-06-19T02:33:27;57374.91;;;-140.43;46.55
30714;BME280;17465;47.934;33.430;2023-06-19T02:35:57;57374.91;;;-140.43;46.55
30714;BME280;17465;47.934;33.430;2023-06-19T02:38:28;57397.15;;;-140.43;48.64
30714;BME280;17465;47.934;33.430;2023-06-19T02:40:58;57362.20;;;-140.43;47.66
30714;BME280;17465;47.934;33.430;2023-06-19T02:43:28;57369.62;;;-140.43;48.47
30714;BME280;17465;47.934;33.430;2023-06-19T02:45:58;57384.44;;;-140.43;48.42
30714;BME280;17465;47.934;33.430;2023-06-19T02:48:29;57395.03;;;-140.43;48.05
30714;BME280;17465;47.934;33.430;2023-06-19T02:50:59;57407.74;;;-140.43;49.61
30714;BME280;17465;47.934;33.430;2023-06-19T02:53:29;57407.74;;;-140.43;49.61
30714;BME280;17465;47.934;33.430;2023-06-19T02:56:00;57393.98;;;-140.43;50.98
30714;BME280;17465;47.934;33.430;2023-06-19T02:58:32;57372.79;;;-140.43;48.88
30714;BME280;17465;47.934;33.430;2023-06-19T03:01:02;57385.50;;;-140.43;49.74
30714;BME280;17465;47.934;33.430;2023-06-19T03:03:33;57385.50;;;-140.43;49.74
30714;BME280;17465;47.934;33.430;2023-06-19T03:06:07;57384.44;;;-140.43;51.61
30714;BME280;17465;47.934;33.430;2023-06-19T03:08:38;57388.68;;;-140.43;50.97
30714;BME280;17465;47.934;33.430;2023-06-19T03:11:08;57402.45;;;-140.43;51.36
30714;BME280;17465;47.934;33.430;2023-06-19T03:13:51;57355.85;;;-140.43;51.36
30714;BME280;17465;47.934;33.430;2023-06-19T03:16:22;57355.85;;;-140.43;51.36
30714;BME280;17465;47.934;33.430;2023-06-19T03:18:52;57381.27;;;-140.43;52.05
30714;BME280;17465;47.934;33.430;2023-06-19T03:21:29;57381.27;;;-140.43;52.05
30714;BME280;17465;47.934;33.430;2023-06-19T03:24:04;57371.73;;;-140.43;49.68
30714;BME280;17465;47.934;33.430;2023-06-19T03:26:37;57395.03;;;-140.43;49.56
30714;BME280;17465;47.934;33.430;2023-06-19T03:29:09;57354.79;;;-140.43;48.94
30714;BME280;17465;47.934;33.430;2023-06-19T03:31:39;57370.68;;;-140.43;50.99
30714;BME280;17465;47.934;33.430;2023-06-19T03:34:10;57397.15;;;-140.43;50.03
30714;BME280;17465;47.934;33.430;2023-06-19T03:36:40;57397.15;;;-140.43;50.03
30714;BME280;17465;47.934;33.430;2023-06-19T03:39:11;57390.80;;;-140.43;51.21
30714;BME280;17465;47.934;33.430;2023-06-19T03:41:41;57398.21;;;-140.43;51.93
30714;BME280;17465;47.934;33.430;2023-06-19T03:44:11;57380.21;;;-140.43;50.68
30714;BME280;17465;47.934;33.430;2023-06-19T03:46:42;57396.09;;;-140.43;52.08
30714;BME280;17465;47.934;33.430;2023-06-19T03:49:14;57386.56;;;-140.43;50.82
30714;BME280;17465;47.934;33.430;2023-06-19T03:51:44;57387.62;;;-140.43;51.53
30714;BME280;17465;47.934;33.430;2023-06-19T03:54:14;57392.91;;;-140.43;51.43
30714;BME280;17465;47.934;33.430;2023-06-19T03:56:45;57399.27;;;-140.43;51.04
30714;BME280;17465;47.934;33.430;2023-06-19T03:59:16;57399.27;;;-140.43;51.04
30714;BME280;17465;47.934;33.430;2023-06-19T04:01:46;57405.62;;;-140.43;50.53
30714;BME280;17465;47.934;33.430;2023-06-19T04:04:17;57370.68;;;-140.43;49.69
30714;BME280;17465;47.934;33.430;2023-06-19T04:06:47;57384.44;;;-140.43;51.71
30714;BME280;17465;47.934;33.430;2023-06-19T04:09:20;57408.80;;;-140.43;50.70
30714;BME280;17465;47.934;33.430;2023-06-19T04:11:50;57424.69;;;-140.43;51.50
30714;BME280;17465;47.934;33.430;2023-06-19T04:14:20;57405.62;;;-140.43;50.43
30714;BME280;17465;47.934;33.430;2023-06-19T04:16:51;57401.39;;;-140.43;52.72
30714;BME280;17465;47.934;33.430;2023-06-19T04:19:21;57420.45;;;-140.43;50.10
30714;BME280;17465;47.934;33.430;2023-06-19T04:21:51;57409.86;;;-140.43;51.36
30714;BME280;17465;47.934;33.430;2023-06-19T04:24:22;57437.39;;;-140.43;48.28
30714;BME280;17465;47.934;33.430;2023-06-19T04:26:52;57410.92;;;-140.43;50.79
30714;BME280;17465;47.934;33.430;2023-06-19T04:29:22;57429.98;;;-140.43;50.35
30714;BME280;17465;47.934;33.430;2023-06-19T04:31:53;57413.04;;;-140.43;50.46
30714;BME280;17465;47.934;33.430;2023-06-19T04:34:23;57469.17;;;-140.43;48.67
30714;BME280;17465;47.934;33.430;2023-06-19T04:36:53;57469.17;;;-140.43;48.67
30714;BME280;17465;47.934;33.430;2023-06-19T04:39:24;57441.63;;;-140.43;50.03
30714;BME280;17465;47.934;33.430;2023-06-19T04:41:54;57456.46;;;-140.43;50.08
30714;BME280;17465;47.934;33.430;2023-06-19T04:44:24;57482.94;;;-140.43;49.65
30714;BME280;17465;47.934;33.430;2023-06-19T04:46:54;57459.64;;;-140.43;48.52
30714;BME280;17465;47.934;33.430;2023-06-19T04:49:24;57455.40;;;-140.43;47.77
30714;BME280;17465;47.934;33.430;2023-06-19T04:51:55;57455.40;;;-140.43;47.77
30714;BME280;17465;47.934;33.430;2023-06-19T04:54:26;57500.94;;;-140.43;46.71
30714;BME280;17465;47.934;33.430;2023-06-19T04:56:56;57502.00;;;-140.43;46.49
30714;BME280;17465;47.934;33.430;2023-06-19T04:59:26;57511.54;;;-140.43;46.07
30714;BME280;17465;47.934;33.430;2023-06-19T05:01:57;57521.07;;;-140.43;45.66
30714;BME280;17465;47.934;33.430;2023-06-19T05:04:27;57511.54;;;-140.43;44.15
30714;BME280;17465;47.934;33.430;2023-06-19T05:07:01;57509.41;;;-140.43;44.59
30714;BME280;17465;47.934;33.430;2023-06-19T05:09:33;57525.30;;;-140.43;44.19
30714;BME280;17465;47.934;33.430;2023-06-19T05:12:04;57525.30;;;-140.43;44.19
30714;BME280;17465;47.934;33.430;2023-06-19T05:14:43;57532.72;;;-140.43;44.46
30714;BME280;17465;47.934;33.430;2023-06-19T05:17:09;57577.20;;;-140.43;42.83
30714;BME280;17465;47.934;33.430;2023-06-19T05:19:40;57553.90;;;-140.43;41.33
30714;BME280;17465;47.934;33.430;2023-06-19T05:22:10;57553.90;;;-140.43;41.33
30714;BME280;17465;47.934;33.430;2023-06-19T05:24:40;57581.44;;;-140.43;41.54
30714;BME280;17465;47.934;33.430;2023-06-19T05:27:11;57594.14;;;-140.43;41.37
30714;BME280;17465;47.934;33.430;2023-06-19T05:29:41;57594.14;;;-140.43;41.37
30714;BME280;17465;47.934;33.430;2023-06-19T05:32:11;57575.08;;;-140.43;41.62
30714;BME280;17465;47.934;33.430;2023-06-19T05:34:41;57583.55;;;-140.43;42.07
30714;BME280;17465;47.934;33.430;2023-06-19T05:37:15;57576.14;;;-140.43;39.99
30714;BME280;17465;47.934;33.430;2023-06-19T05:39:47;57576.14;;;-140.43;39.99
30714;BME280;17465;47.934;33.430;2023-06-19T05:42:17;57593.09;;;-140.43;39.92
30714;BME280;17465;47.934;33.430;2023-06-19T05:44:47;57603.68;;;-140.43;40.00
30714;BME280;17465;47.934;33.430;2023-06-19T05:47:17;57603.68;;;-140.43;40.00
30714;BME280;17465;47.934;33.430;2023-06-19T05:49:48;57644.98;;;-140.43;39.32
30714;BME280;17465;47.934;33.430;2023-06-19T05:52:18;57611.09;;;-140.43;39.02
30714;BME280;17465;47.934;33.430;2023-06-19T05:54:48;57612.15;;;-140.43;39.15
30714;BME280;17465;47.934;33.430;2023-06-19T05:57:20;57633.34;;;-140.43;39.14
30714;BME280;17465;47.934;33.430;2023-06-19T05:59:51;57653.46;;;-140.43;38.21
30714;BME280;17465;47.934;33.430;2023-06-19T06:02:21;57664.05;;;-140.43;38.39
30714;BME280;17465;47.934;33.430;2023-06-19T06:04:52;57646.04;;;-140.43;39.22
30714;BME280;17465;47.934;33.430;2023-06-19T06:07:22;57639.69;;;-140.43;37.09
30714;BME280;17465;47.934;33.430;2023-06-19T06:09:52;57639.69;;;-140.43;37.09
30714;BME280;17465;47.934;33.430;2023-06-19T06:12:23;57703.24;;;-140.43;37.65
30714;BME280;17465;47.934;33.430;2023-06-19T06:14:54;57718.07;;;-140.43;38.66
30714;BME280;17465;47.934;33.430;2023-06-19T06:17:24;57692.65;;;-140.43;37.21
30714;BME280;17465;47.934;33.430;2023-06-19T06:20:15;57676.76;;;-140.43;36.20
30714;BME280;17465;47.934;33.430;2023-06-19T06:22:45;57676.76;;;-140.43;36.20
30714;BME280;17465;47.934;33.430;2023-06-19T06:25:15;57700.06;;;-140.43;35.51
30714;BME280;17465;47.934;33.430;2023-06-19T06:27:46;57724.42;;;-140.43;35.80
30714;BME280;17465;47.934;33.430;2023-06-19T06:30:16;57730.78;;;-140.43;35.31
30714;BME280;17465;47.934;33.430;2023-06-19T06:32:53;57707.48;;;-140.43;35.24
30714;BME280;17465;47.934;33.430;2023-06-19T06:35:23;57755.14;;;-140.43;34.89
30714;BME280;17465;47.934;33.430;2023-06-19T06:37:53;57755.14;;;-140.43;34.89
30714;BME280;17465;47.934;33.430;2023-06-19T06:40:27;57753.02;;;-140.43;35.06
30714;BME280;17465;47.934;33.430;2023-06-19T06:42:58;57749.84;;;-140.43;35.15
30714;BME280;17465;47.934;33.430;2023-06-19T06:45:29;57791.15;;;-140.43;34.45
30714;BME280;17465;47.934;33.430;2023-06-19T06:47:59;57769.97;;;-140.43;34.30
30714;BME280;17465;47.934;33.430;2023-06-19T06:50:33;57849.41;;;-140.43;34.01
30714;BME280;17465;47.934;33.430;2023-06-19T06:53:03;57857.88;;;-140.43;33.47
30714;BME280;17465;47.934;33.430;2023-06-19T06:55:39;57857.88;;;-140.43;33.47
30714;BME280;17465;47.934;33.430;2023-06-19T06:58:11;57845.17;;;-140.43;33.39
30714;BME280;17465;47.934;33.430;2023-06-19T07:00:41;57870.59;;;-140.43;32.42
30714;BME280;17465;47.934;33.430;2023-06-19T07:03:12;57881.19;;;-140.43;33.49
30714;BME280;17465;47.934;33.430;2023-06-19T07:05:42;57937.32;;;-140.43;32.70
30714;BME280;17465;47.934;33.430;2023-06-19T07:08:13;57928.85;;;-140.43;32.25
30714;BME280;17465;47.934;33.430;2023-06-19T07:10:43;57950.04;;;-140.43;32.25
30714;BME280;17465;47.934;33.430;2023-06-19T07:13:14;57959.57;;;-140.43;31.57
30714;BME280;17465;47.934;33.430;2023-06-19T07:18:31;57953.21;;;-140.43;31.19
30714;BME280;17465;47.934;33.430;2023-06-19T07:21:03;57953.21;;;-140.43;31.19
30714;BME280;17465;47.934;33.430;2023-06-19T07:23:36;57991.35;;;-140.43;31.97
30714;BME280;17465;47.934;33.430;2023-06-19T07:26:07;57991.35;;;-140.43;31.97
30714;BME280;17465;47.934;33.430;2023-06-19T07:28:37;57963.80;;;-140.43;30.52
30714;BME280;17465;47.934;33.430;2023-06-19T07:31:08;58034.78;;;-140.43;29.65
30714;BME280;17465;47.934;33.430;2023-06-19T07:33:39;58034.78;;;-140.43;29.65
30714;BME280;17465;47.934;33.430;2023-06-19T07:36:09;58011.47;;;-140.43;30.15
30714;BME280;17465;47.934;33.430;2023-06-19T07:38:40;58011.47;;;-140.43;30.15
30714;BME280;17465;47.934;33.430;2023-06-19T07:41:10;58066.55;;;-140.43;30.05
30714;BME280;17465;47.934;33.430;2023-06-19T07:43:42;58066.55;;;-140.43;30.05
30714;BME280;17465;47.934;33.430;2023-06-19T07:46:12;58114.22;;;-140.43;29.14
30714;BME280;17465;47.934;33.430;2023-06-19T07:48:44;58089.86;;;-140.43;28.62
30714;BME280;17465;47.934;33.430;2023-06-19T07:51:14;58089.86;;;-140.43;28.62
30714;BME280;17465;47.934;33.430;2023-06-19T07:53:46;58123.76;;;-140.43;28.40
30714;BME280;17465;47.934;33.430;2023-06-19T07:56:19;58123.76;;;-140.43;28.40
30714;BME280;17465;47.934;33.430;2023-06-19T07:58:49;58158.71;;;-140.43;29.00
30714;BME280;17465;47.934;33.430;2023-06-19T08:01:19;58158.71;;;-140.43;29.00
30714;BME280;17465;47.934;33.430;2023-06-19T08:03:50;58164.01;;;-140.43;28.84
30714;BME280;17465;47.934;33.430;2023-06-19T08:06:21;58194.73;;;-140.43;27.62
30714;BME280;17465;47.934;33.430;2023-06-19T08:08:52;58194.73;;;-140.43;27.62
30714;BME280;17465;47.934;33.430;2023-06-19T08:11:22;58178.84;;;-140.43;28.44
30714;BME280;17465;47.934;33.430;2023-06-19T08:13:53;58234.98;;;-140.43;27.77
30714;BME280;17465;47.934;33.430;2023-06-19T08:16:25;58226.51;;;-140.43;28.03
30714;BME280;17465;47.934;33.430;2023-06-19T08:18:58;58226.51;;;-140.43;28.03
30714;BME280;17465;47.934;33.430;2023-06-19T08:21:28;58230.75;;;-140.43;27.78
30714;BME280;17465;47.934;33.430;2023-06-19T08:23:58;58276.30;;;-140.43;27.19
30714;BME280;17465;47.934;33.430;2023-06-19T08:26:30;58276.30;;;-140.43;27.19
30714;BME280;17465;47.934;33.430;2023-06-19T08:29:00;58262.53;;;-140.43;26.87
30714;BME280;17465;47.934;33.430;2023-06-19T08:31:31;58253.00;;;-140.43;27.64
30714;BME280;17465;47.934;33.430;2023-06-19T08:34:01;58193.67;;;-140.43;26.82
30714;BME280;17465;47.934;33.430;2023-06-19T08:36:33;58225.45;;;-140.43;27.36
30714;BME280;17465;47.934;33.430;2023-06-19T08:39:03;58295.37;;;-140.43;27.60
30714;BME280;17465;47.934;33.430;2023-06-19T08:41:36;58298.55;;;-140.43;26.88
30714;BME280;17465;47.934;33.430;2023-06-19T08:44:06;58312.32;;;-140.43;27.55
30714;BME280;17465;47.934;33.430;2023-06-19T08:46:36;58312.32;;;-140.43;27.55
30714;BME280;17465;47.934;33.430;2023-06-19T08:49:08;58312.32;;;-140.43;28.12
30714;BME280;17465;47.934;33.430;2023-06-19T08:51:40;58312.32;;;-140.43;28.12
30714;BME280;17465;47.934;33.430;2023-06-19T08:54:11;58305.96;;;-140.43;26.04
30714;BME280;17465;47.934;33.430;2023-06-19T08:56:42;58320.79;;;-140.43;26.78
30714;BME280;17465;47.934;33.430;2023-06-19T08:59:14;58320.79;;;-140.43;26.25
30714;BME280;17465;47.934;33.430;2023-06-19T09:01:51;58320.79;;;-140.43;26.25
30714;BME280;17465;47.934;33.430;2023-06-19T09:04:25;58247.70;;;-140.43;26.57
30714;BME280;17465;47.934;33.430;2023-06-19T09:07:00;58247.70;;;-140.43;26.57
30714;BME280;17465;47.934;33.430;2023-06-19T09:09:45;58321.85;;;-140.43;27.07
30714;BME280;17465;47.934;33.430;2023-06-19T09:12:16;58388.59;;;-140.43;26.79
30714;BME280;17465;47.934;33.430;2023-06-19T09:14:46;58322.91;;;-140.43;25.97
30714;BME280;17465;47.934;33.430;2023-06-19T09:17:25;58488.18;;;-140.43;26.69
30714;BME280;17465;47.934;33.430;2023-06-19T09:19:55;58378.00;;;-140.43;26.03
30714;BME280;17465;47.934;33.430;2023-06-19T09:22:28;58397.07;;;-140.43;26.33
30714;BME280;17465;47.934;33.430;2023-06-19T09:25:02;58421.43;;;-140.43;26.23
30714;BME280;17465;47.934;33.430;2023-06-19T09:27:33;58383.30;;;-140.43;26.11
30714;BME280;17465;47.934;33.430;2023-06-19T09:30:05;58300.66;;;-140.43;26.81
30714;BME280;17465;47.934;33.430;2023-06-19T09:32:36;58331.39;;;-140.43;26.57
30714;BME280;17465;47.934;33.430;2023-06-19T09:35:07;58219.10;;;-140.43;26.88
30714;BME280;17465;47.934;33.430;2023-06-19T09:37:39;58246.64;;;-140.43;27.00
30714;BME280;17465;47.934;33.430;2023-06-19T09:40:10;58200.03;;;-140.43;27.52
30714;BME280;17465;47.934;33.430;2023-06-19T09:45:32;58309.14;;;-140.43;26.79
30714;BME280;17465;47.934;33.430;2023-06-19T09:48:05;58241.34;;;-140.43;26.65
30714;BME280;17465;47.934;33.430;2023-06-19T09:50:40;58241.34;;;-140.43;26.65
30714;BME280;17465;47.934;33.430;2023-06-19T09:53:11;58275.24;;;-140.43;27.42
30714;BME280;17465;47.934;33.430;2023-06-19T09:55:42;58365.29;;;-140.43;27.31
30714;BME280;17465;47.934;33.430;2023-06-19T09:58:13;58242.40;;;-140.43;27.24
30714;BME280;17465;47.934;33.430;2023-06-19T10:00:47;58261.47;;;-140.43;27.72
30714;BME280;17465;47.934;33.430;2023-06-19T10:03:18;58169.31;;;-140.43;27.12
30714;BME280;17465;47.934;33.430;2023-06-19T10:05:59;58232.87;;;-140.43;28.03
30714;BME280;17465;47.934;33.430;2023-06-19T10:08:40;58310.20;;;-140.43;27.36
30714;BME280;17465;47.934;33.430;2023-06-19T10:11:11;58362.11;;;-140.43;26.44
30714;BME280;17465;47.934;33.430;2023-06-19T10:13:47;58223.33;;;-140.43;26.65
30714;BME280;17465;47.934;33.430;2023-06-19T10:16:23;58228.63;;;-140.43;27.79
30714;BME280;17465;47.934;33.430;2023-06-19T10:18:57;58144.94;;;-140.43;27.94
30714;BME280;17465;47.934;33.430;2023-06-19T10:21:43;58161.89;;;-140.43;28.84
30714;BME280;17465;47.934;33.430;2023-06-19T10:24:05;58161.89;;;-140.43;28.84
30714;BME280;17465;47.934;33.430;2023-06-19T10:26:36;58090.92;;;-140.43;29.01
30714;BME280;17465;47.934;33.430;2023-06-19T10:29:17;58090.92;;;-140.43;29.01
30714;BME280;17465;47.934;33.430;2023-06-19T10:31:48;58077.15;;;-140.43;28.46
30714;BME280;17465;47.934;33.430;2023-06-19T10:34:22;58087.74;;;-140.43;28.00
30714;BME280;17465;47.934;33.430;2023-06-19T10:36:56;58176.72;;;-140.43;28.25
30714;BME280;17465;47.934;33.430;2023-06-19T10:39:30;58272.06;;;-140.43;27.78
30714;BME280;17465;47.934;33.430;2023-06-19T10:42:07;58220.16;;;-140.43;28.08
30714;BME280;17465;47.934;33.430;2023-06-19T10:44:38;58183.08;;;-140.43;27.76
30714;BME280;17465;47.934;33.430;2023-06-19T10:47:08;58066.55;;;-140.43;28.45
30714;BME280;17465;47.934;33.430;2023-06-19T10:49:39;58066.55;;;-140.43;28.45
30714;BME280;17465;47.934;33.430;2023-06-19T10:52:10;58041.13;;;-140.43;29.40
30714;BME280;17465;47.934;33.430;2023-06-19T10:54:41;58055.96;;;-140.43;29.47
30714;BME280;17465;47.934;33.430;2023-06-19T10:57:11;58033.72;;;-140.43;29.19
30714;BME280;17465;47.934;33.430;2023-06-19T10:59:44;58152.36;;;-140.43;28.43
30714;BME280;17465;47.934;33.430;2023-06-19T11:02:18;58164.01;;;-140.43;27.42
30714;BME280;17465;47.934;33.430;2023-06-19T11:04:51;58244.52;;;-140.43;27.55
30714;BME280;17465;47.934;33.430;2023-06-19T11:07:22;58291.13;;;-140.43;26.97
30714;BME280;17465;47.934;33.430;2023-06-19T11:09:52;58311.26;;;-140.43;27.19
30714;BME280;17465;47.934;33.430;2023-06-19T11:12:23;58391.77;;;-140.43;26.48
30714;BME280;17465;47.934;33.430;2023-06-19T11:14:58;58425.67;;;-140.43;26.58
30714;BME280;17465;47.934;33.430;2023-06-19T11:17:29;58446.86;;;-140.43;25.51
30714;BME280;17465;47.934;33.430;2023-06-19T11:20:01;58407.66;;;-140.43;26.48
30714;BME280;17465;47.934;33.430;2023-06-19T11:22:38;58407.66;;;-140.43;26.48
30714;BME280;17465;47.934;33.430;2023-06-19T11:25:10;58427.79;;;-140.43;25.41
30714;BME280;17465;47.934;33.430;2023-06-19T11:27:46;58327.15;;;-140.43;25.16
30714;BME280;17465;47.934;33.430;2023-06-19T11:30:17;58497.71;;;-140.43;25.18
30714;BME280;17465;47.934;33.430;2023-06-19T11:32:48;58497.71;;;-140.43;25.18
30714;BME280;17465;47.934;33.430;2023-06-19T11:35:18;58477.58;;;-140.43;25.36
30714;BME280;17465;47.934;33.430;2023-06-19T11:37:48;58541.15;;;-140.43;24.77
30714;BME280;17465;47.934;33.430;2023-06-19T11:40:19;58610.01;;;-140.43;24.68
30714;BME280;17465;47.934;33.430;2023-06-19T11:42:51;58577.17;;;-140.43;23.96
30714;BME280;17465;47.934;33.430;2023-06-19T11:45:22;58483.94;;;-140.43;24.49
30714;BME280;17465;47.934;33.430;2023-06-19T11:47:53;58365.29;;;-140.43;25.86
30714;BME280;17465;47.934;33.430;2023-06-19T11:50:30;58350.46;;;-140.43;26.42
30714;BME280;17465;47.934;33.430;2023-06-19T11:53:03;58401.30;;;-140.43;25.47
30714;BME280;17465;47.934;33.430;2023-06-19T11:55:33;58448.98;;;-140.43;25.47
30714;BME280;17465;47.934;33.430;2023-06-19T11:58:05;58452.16;;;-140.43;24.91
30714;BME280;17465;47.934;33.430;2023-06-19T12:00:40;58452.16;;;-140.43;25.36
30714;BME280;17465;47.934;33.430;2023-06-19T12:03:14;58452.16;;;-140.43;25.36
30714;BME280;17465;47.934;33.430;2023-06-19T12:05:49;58571.87;;;-140.43;24.91
30714;BME280;17465;47.934;33.430;2023-06-19T12:08:21;58605.78;;;-140.43;24.34
30714;BME280;17465;47.934;33.430;2023-06-19T12:10:52;58571.87;;;-140.43;24.74
30714;BME280;17465;47.934;33.430;2023-06-19T12:13:23;58659.81;;;-140.43;24.70
30714;BME280;17465;47.934;33.430;2023-06-19T12:15:54;58608.95;;;-140.43;24.35
30714;BME280;17465;47.934;33.430;2023-06-19T12:18:24;58471.23;;;-140.43;26.23
30714;BME280;17465;47.934;33.430;2023-06-19T12:20:54;58471.23;;;-140.43;26.23
30714;BME280;17465;47.934;33.430;2023-06-19T12:23:27;58532.67;;;-140.43;24.89
30714;BME280;17465;47.934;33.430;2023-06-19T12:26:02;58587.77;;;-140.43;24.43
30714;BME280;17465;47.934;33.430;2023-06-19T12:28:32;58587.77;;;-140.43;24.43
30714;BME280;17465;47.934;33.430;2023-06-19T12:31:04;58572.93;;;-140.43;24.93
30714;BME280;17465;47.934;33.430;2023-06-19T12:33:39;58572.93;;;-140.43;24.93
30714;BME280;17465;47.934;33.430;2023-06-19T12:36:10;58383.30;;;-140.43;25.17
30714;BME280;17465;47.934;33.430;2023-06-19T12:38:44;58508.30;;;-140.43;25.62
30714;BME280;17465;47.934;33.430;2023-06-19T12:41:15;58508.30;;;-140.43;25.62
30714;BME280;17465;47.934;33.430;2023-06-19T12:43:45;58495.59;;;-140.43;25.96
30714;BME280;17465;47.934;33.430;2023-06-19T12:46:15;58578.23;;;-140.43;24.45
30714;BME280;17465;47.934;33.430;2023-06-19T12:48:50;58525.26;;;-140.43;24.34
30714;BME280;17465;47.934;33.430;2023-06-19T12:51:20;58507.25;;;-140.43;24.70
30714;BME280;17465;47.934;33.430;2023-06-19T12:53:52;58362.11;;;-140.43;25.12
30714;BME280;17465;47.934;33.430;2023-06-19T12:56:22;58400.25;;;-140.43;25.95
30714;BME280;17465;47.934;33.430;2023-06-19T12:58:54;58400.25;;;-140.43;25.95
30714;BME280;17465;47.934;33.430;2023-06-19T13:01:25;58325.03;;;-140.43;27.34